Pittsford, Michigan
Current Conditions -  °F | °C
As of 7:15 AM on Saturday 25 Oct 2014 (Local Time) from KJYM Reporting Station
Overcast Overcast  
Wind Chill: 54°   Ceiling: 3900
Heat Index: 54°   Visibility: 7mi
Dew Point: 52°   Wind: 7mph
Humidity: 93%   Direction: 250°WSW
Pressure: 29.89"   Gusts: NA
Location:  41.86°N, 84.48°W
Report Text: KJYM 251115Z AUTO 25006KT 7SM SCT020 OVC039 12/11 A2989 RMK AO2 T01230112
Loading
Personal Weather Stations






























Interactive Weather Map
Tropical Storm Tracking
New forecast layout! Learn more

10-Day Weather Forecast

Advertisements
Track Severe Weather on mobile